sensor_id;sensor_type;location;lat;lon;timestamp;P1;durP1;ratioP1;P2;durP2;ratioP2
2784;SDS011;57944;48.722;9.316;2023-12-20T00:00:07;3.87;;;2.37;;
2784;SDS011;57944;48.722;9.316;2023-12-20T00:02:38;5.33;;;2.53;;
2784;SDS011;57944;48.722;9.316;2023-12-20T00:05:13;2.20;;;1.50;;
2784;SDS011;57944;48.722;9.316;2023-12-20T00:07:44;3.30;;;2.17;;
2784;SDS011;57944;48.722;9.316;2023-12-20T00:10:15;2.83;;;1.87;;
2784;SDS011;57944;48.722;9.316;2023-12-20T00:12:48;2.73;;;1.70;;
2784;SDS011;57944;48.722;9.316;2023-12-20T00:15:19;3.00;;;2.20;;
2784;SDS011;57944;48.722;9.316;2023-12-20T00:17:49;4.67;;;3.23;;
2784;SDS011;57944;48.722;9.316;2023-12-20T00:20:20;2.73;;;1.60;;
2784;SDS011;57944;48.722;9.316;2023-12-20T00:22:48;2.30;;;1.47;;
2784;SDS011;57944;48.722;9.316;2023-12-20T00:25:19;2.40;;;1.53;;
2784;SDS011;57944;48.722;9.316;2023-12-20T00:27:52;3.93;;;1.90;;
2784;SDS011;57944;48.722;9.316;2023-12-20T00:30:22;3.07;;;1.57;;
2784;SDS011;57944;48.722;9.316;2023-12-20T00:32:53;2.70;;;1.80;;
2784;SDS011;57944;48.722;9.316;2023-12-20T00:35:24;3.03;;;1.63;;
2784;SDS011;57944;48.722;9.316;2023-12-20T00:37:55;7.63;;;2.73;;
2784;SDS011;57944;48.722;9.316;2023-12-20T00:40:25;2.83;;;1.60;;
2784;SDS011;57944;48.722;9.316;2023-12-20T00:42:58;3.20;;;1.47;;
2784;SDS011;57944;48.722;9.316;2023-12-20T00:45:29;3.27;;;2.13;;
2784;SDS011;57944;48.722;9.316;2023-12-20T00:48:00;2.30;;;1.30;;
2784;SDS011;57944;48.722;9.316;2023-12-20T00:50:30;3.10;;;2.07;;
2784;SDS011;57944;48.722;9.316;2023-12-20T00:53:01;3.10;;;1.50;;
2784;SDS011;57944;48.722;9.316;2023-12-20T00:55:32;2.60;;;1.70;;
2784;SDS011;57944;48.722;9.316;2023-12-20T00:58:05;4.50;;;2.00;;
2784;SDS011;57944;48.722;9.316;2023-12-20T01:00:36;3.77;;;2.00;;
2784;SDS011;57944;48.722;9.316;2023-12-20T01:03:10;3.03;;;1.93;;
2784;SDS011;57944;48.722;9.316;2023-12-20T01:05:42;2.87;;;1.67;;
2784;SDS011;57944;48.722;9.316;2023-12-20T01:08:12;2.93;;;2.03;;
2784;SDS011;57944;48.722;9.316;2023-12-20T01:10:43;3.00;;;1.70;;
2784;SDS011;57944;48.722;9.316;2023-12-20T01:13:16;3.20;;;1.77;;
2784;SDS011;57944;48.722;9.316;2023-12-20T01:15:46;3.40;;;1.80;;
2784;SDS011;57944;48.722;9.316;2023-12-20T01:18:17;4.80;;;2.00;;
2784;SDS011;57944;48.722;9.316;2023-12-20T01:20:48;5.17;;;1.93;;
2784;SDS011;57944;48.722;9.316;2023-12-20T01:23:19;2.77;;;1.53;;
2784;SDS011;57944;48.722;9.316;2023-12-20T01:25:49;3.30;;;1.90;;
2784;SDS011;57944;48.722;9.316;2023-12-20T01:28:23;3.13;;;1.57;;
2784;SDS011;57944;48.722;9.316;2023-12-20T01:30:54;3.10;;;1.67;;
2784;SDS011;57944;48.722;9.316;2023-12-20T01:33:25;2.13;;;1.43;;
2784;SDS011;57944;48.722;9.316;2023-12-20T01:35:55;2.07;;;1.40;;
2784;SDS011;57944;48.722;9.316;2023-12-20T01:38:26;2.10;;;1.30;;
2784;SDS011;57944;48.722;9.316;2023-12-20T01:40:56;2.77;;;1.53;;
2784;SDS011;57944;48.722;9.316;2023-12-20T01:43:29;4.70;;;1.63;;
2784;SDS011;57944;48.722;9.316;2023-12-20T01:46:15;3.80;;;1.70;;
2784;SDS011;57944;48.722;9.316;2023-12-20T01:48:48;7.40;;;2.13;;
2784;SDS011;57944;48.722;9.316;2023-12-20T01:51:19;3.60;;;1.47;;
2784;SDS011;57944;48.722;9.316;2023-12-20T01:53:51;3.00;;;1.30;;
2784;SDS011;57944;48.722;9.316;2023-12-20T01:56:22;2.07;;;1.40;;
2784;SDS011;57944;48.722;9.316;2023-12-20T01:58:55;3.00;;;1.40;;
2784;SDS011;57944;48.722;9.316;2023-12-20T02:01:27;3.73;;;2.53;;
2784;SDS011;57944;48.722;9.316;2023-12-20T02:03:58;4.10;;;1.40;;
2784;SDS011;57944;48.722;9.316;2023-12-20T02:06:30;2.30;;;1.30;;
2784;SDS011;57944;48.722;9.316;2023-12-20T02:09:03;3.50;;;1.70;;
2784;SDS011;57944;48.722;9.316;2023-12-20T02:11:34;3.00;;;1.40;;
2784;SDS011;57944;48.722;9.316;2023-12-20T02:14:05;2.80;;;1.50;;
2784;SDS011;57944;48.722;9.316;2023-12-20T02:16:35;4.37;;;1.63;;
2784;SDS011;57944;48.722;9.316;2023-12-20T02:19:07;3.40;;;1.50;;
2784;SDS011;57944;48.722;9.316;2023-12-20T02:21:45;2.93;;;1.40;;
2784;SDS011;57944;48.722;9.316;2023-12-20T02:24:16;3.07;;;1.40;;
2784;SDS011;57944;48.722;9.316;2023-12-20T02:26:46;2.83;;;1.33;;
2784;SDS011;57944;48.722;9.316;2023-12-20T02:29:17;2.70;;;1.57;;
2784;SDS011;57944;48.722;9.316;2023-12-20T02:31:48;3.40;;;2.00;;
2784;SDS011;57944;48.722;9.316;2023-12-20T02:34:18;3.30;;;1.43;;
2784;SDS011;57944;48.722;9.316;2023-12-20T02:36:51;2.10;;;1.10;;
2784;SDS011;57944;48.722;9.316;2023-12-20T02:39:22;2.30;;;1.50;;
2784;SDS011;57944;48.722;9.316;2023-12-20T02:41:53;2.50;;;1.20;;
2784;SDS011;57944;48.722;9.316;2023-12-20T02:44:23;2.60;;;1.50;;
2784;SDS011;57944;48.722;9.316;2023-12-20T02:46:54;2.80;;;1.40;;
2784;SDS011;57944;48.722;9.316;2023-12-20T02:49:24;2.10;;;1.33;;
2784;SDS011;57944;48.722;9.316;2023-12-20T02:51:57;2.37;;;1.30;;
2784;SDS011;57944;48.722;9.316;2023-12-20T02:54:28;2.53;;;1.80;;
2784;SDS011;57944;48.722;9.316;2023-12-20T02:56:59;2.20;;;1.13;;
2784;SDS011;57944;48.722;9.316;2023-12-20T02:59:29;2.40;;;1.30;;
2784;SDS011;57944;48.722;9.316;2023-12-20T03:02:00;2.00;;;1.33;;
2784;SDS011;57944;48.722;9.316;2023-12-20T03:04:31;3.20;;;1.70;;
2784;SDS011;57944;48.722;9.316;2023-12-20T03:07:04;3.00;;;1.70;;
2784;SDS011;57944;48.722;9.316;2023-12-20T03:09:35;2.10;;;1.30;;
2784;SDS011;57944;48.722;9.316;2023-12-20T03:12:25;2.23;;;1.13;;
2784;SDS011;57944;48.722;9.316;2023-12-20T03:14:56;2.37;;;1.23;;
2784;SDS011;57944;48.722;9.316;2023-12-20T03:17:26;2.97;;;1.70;;
2784;SDS011;57944;48.722;9.316;2023-12-20T03:19:57;3.40;;;1.60;;
2784;SDS011;57944;48.722;9.316;2023-12-20T03:22:30;3.87;;;2.50;;
2784;SDS011;57944;48.722;9.316;2023-12-20T03:25:01;4.97;;;2.60;;
2784;SDS011;57944;48.722;9.316;2023-12-20T03:27:32;4.20;;;2.87;;
2784;SDS011;57944;48.722;9.316;2023-12-20T03:30:03;5.00;;;3.70;;
2784;SDS011;57944;48.722;9.316;2023-12-20T03:32:35;5.10;;;3.00;;
2784;SDS011;57944;48.722;9.316;2023-12-20T03:35:06;5.00;;;2.67;;
2784;SDS011;57944;48.722;9.316;2023-12-20T03:37:40;3.80;;;2.60;;
2784;SDS011;57944;48.722;9.316;2023-12-20T03:40:11;8.77;;;3.50;;
2784;SDS011;57944;48.722;9.316;2023-12-20T03:42:41;4.80;;;2.90;;
2784;SDS011;57944;48.722;9.316;2023-12-20T03:45:12;5.87;;;3.97;;
2784;SDS011;57944;48.722;9.316;2023-12-20T03:47:43;7.80;;;4.60;;
2784;SDS011;57944;48.722;9.316;2023-12-20T03:50:15;6.60;;;4.43;;
2784;SDS011;57944;48.722;9.316;2023-12-20T03:52:48;5.50;;;3.77;;
2784;SDS011;57944;48.722;9.316;2023-12-20T03:55:19;7.33;;;4.10;;
2784;SDS011;57944;48.722;9.316;2023-12-20T03:57:49;4.50;;;3.40;;
2784;SDS011;57944;48.722;9.316;2023-12-20T04:00:20;7.23;;;3.53;;
2784;SDS011;57944;48.722;9.316;2023-12-20T04:02:51;6.13;;;2.70;;
2784;SDS011;57944;48.722;9.316;2023-12-20T04:05:21;3.77;;;2.60;;
2784;SDS011;57944;48.722;9.316;2023-12-20T04:07:55;4.63;;;2.40;;
2784;SDS011;57944;48.722;9.316;2023-12-20T04:10:26;4.00;;;2.10;;
2784;SDS011;57944;48.722;9.316;2023-12-20T04:12:56;3.13;;;2.07;;
2784;SDS011;57944;48.722;9.316;2023-12-20T04:15:27;3.13;;;1.70;;
2784;SDS011;57944;48.722;9.316;2023-12-20T04:17:58;2.57;;;1.60;;
2784;SDS011;57944;48.722;9.316;2023-12-20T04:20:28;3.03;;;1.77;;
2784;SDS011;57944;48.722;9.316;2023-12-20T04:23:01;2.63;;;1.33;;
2784;SDS011;57944;48.722;9.316;2023-12-20T04:25:32;1.80;;;1.00;;
2784;SDS011;57944;48.722;9.316;2023-12-20T04:28:03;2.50;;;1.20;;
2784;SDS011;57944;48.722;9.316;2023-12-20T04:30:34;2.30;;;1.37;;
2784;SDS011;57944;48.722;9.316;2023-12-20T04:33:05;2.10;;;1.20;;
2784;SDS011;57944;48.722;9.316;2023-12-20T04:35:35;2.30;;;0.90;;
2784;SDS011;57944;48.722;9.316;2023-12-20T04:38:10;2.97;;;1.20;;
2784;SDS011;57944;48.722;9.316;2023-12-20T04:40:40;3.40;;;1.30;;
2784;SDS011;57944;48.722;9.316;2023-12-20T04:43:11;3.00;;;1.10;;
2784;SDS011;57944;48.722;9.316;2023-12-20T04:45:41;5.10;;;3.07;;
2784;SDS011;57944;48.722;9.316;2023-12-20T04:48:12;4.60;;;3.10;;
2784;SDS011;57944;48.722;9.316;2023-12-20T04:50:42;3.87;;;2.20;;
2784;SDS011;57944;48.722;9.316;2023-12-20T04:53:16;3.03;;;1.57;;
2784;SDS011;57944;48.722;9.316;2023-12-20T04:55:46;3.03;;;0.90;;
2784;SDS011;57944;48.722;9.316;2023-12-20T04:58:17;2.83;;;1.40;;
2784;SDS011;57944;48.722;9.316;2023-12-20T05:00:47;2.57;;;1.87;;
2784;SDS011;57944;48.722;9.316;2023-12-20T05:03:19;2.93;;;1.47;;
2784;SDS011;57944;48.722;9.316;2023-12-20T05:05:49;4.63;;;1.90;;
2784;SDS011;57944;48.722;9.316;2023-12-20T05:08:22;4.40;;;1.40;;
2784;SDS011;57944;48.722;9.316;2023-12-20T05:10:53;8.40;;;1.53;;
2784;SDS011;57944;48.722;9.316;2023-12-20T05:13:24;2.70;;;1.83;;
2784;SDS011;57944;48.722;9.316;2023-12-20T05:16:10;2.50;;;1.40;;
2784;SDS011;57944;48.722;9.316;2023-12-20T05:18:41;3.77;;;2.13;;
2784;SDS011;57944;48.722;9.316;2023-12-20T05:21:11;3.70;;;1.33;;
2784;SDS011;57944;48.722;9.316;2023-12-20T05:23:44;2.73;;;1.73;;
2784;SDS011;57944;48.722;9.316;2023-12-20T05:26:15;3.13;;;1.80;;
2784;SDS011;57944;48.722;9.316;2023-12-20T05:28:45;3.03;;;1.37;;
2784;SDS011;57944;48.722;9.316;2023-12-20T05:31:16;2.60;;;1.60;;
2784;SDS011;57944;48.722;9.316;2023-12-20T05:33:47;3.43;;;1.90;;
2784;SDS011;57944;48.722;9.316;2023-12-20T05:36:18;2.73;;;1.50;;
2784;SDS011;57944;48.722;9.316;2023-12-20T05:38:51;3.60;;;1.30;;
2784;SDS011;57944;48.722;9.316;2023-12-20T05:41:22;2.33;;;1.20;;
2784;SDS011;57944;48.722;9.316;2023-12-20T05:43:52;7.50;;;1.37;;
2784;SDS011;57944;48.722;9.316;2023-12-20T05:46:24;7.80;;;2.90;;
2784;SDS011;57944;48.722;9.316;2023-12-20T05:48:55;2.07;;;1.10;;
2784;SDS011;57944;48.722;9.316;2023-12-20T05:51:26;3.20;;;1.33;;
2784;SDS011;57944;48.722;9.316;2023-12-20T05:53:59;2.57;;;1.27;;
2784;SDS011;57944;48.722;9.316;2023-12-20T05:56:30;4.03;;;1.60;;
2784;SDS011;57944;48.722;9.316;2023-12-20T05:59:01;9.43;;;5.80;;
2784;SDS011;57944;48.722;9.316;2023-12-20T06:01:31;3.33;;;1.40;;
2784;SDS011;57944;48.722;9.316;2023-12-20T06:04:02;2.90;;;1.60;;
2784;SDS011;57944;48.722;9.316;2023-12-20T06:06:33;3.23;;;1.60;;
2784;SDS011;57944;48.722;9.316;2023-12-20T06:09:12;3.10;;;1.43;;
2784;SDS011;57944;48.722;9.316;2023-12-20T06:11:42;3.23;;;1.70;;
2784;SDS011;57944;48.722;9.316;2023-12-20T06:14:13;6.50;;;2.40;;
2784;SDS011;57944;48.722;9.316;2023-12-20T06:16:44;3.20;;;2.10;;
2784;SDS011;57944;48.722;9.316;2023-12-20T06:19:15;5.60;;;2.00;;
2784;SDS011;57944;48.722;9.316;2023-12-20T06:21:45;4.13;;;2.10;;
2784;SDS011;57944;48.722;9.316;2023-12-20T06:24:19;4.10;;;1.93;;
2784;SDS011;57944;48.722;9.316;2023-12-20T06:26:54;3.20;;;1.50;;
2784;SDS011;57944;48.722;9.316;2023-12-20T06:29:25;3.77;;;2.00;;
2784;SDS011;57944;48.722;9.316;2023-12-20T06:31:55;4.10;;;2.23;;
2784;SDS011;57944;48.722;9.316;2023-12-20T06:34:26;3.80;;;2.50;;
2784;SDS011;57944;48.722;9.316;2023-12-20T06:36:57;6.17;;;3.10;;
2784;SDS011;57944;48.722;9.316;2023-12-20T06:39:30;4.07;;;2.50;;
2784;SDS011;57944;48.722;9.316;2023-12-20T06:42:03;4.00;;;2.17;;
2784;SDS011;57944;48.722;9.316;2023-12-20T06:44:36;3.10;;;1.90;;
2784;SDS011;57944;48.722;9.316;2023-12-20T06:47:10;3.00;;;1.40;;
2784;SDS011;57944;48.722;9.316;2023-12-20T06:49:41;2.47;;;1.30;;
2784;SDS011;57944;48.722;9.316;2023-12-20T06:52:11;2.80;;;1.77;;
2784;SDS011;57944;48.722;9.316;2023-12-20T06:54:45;2.63;;;1.77;;
2784;SDS011;57944;48.722;9.316;2023-12-20T06:57:15;2.40;;;2.10;;
2784;SDS011;57944;48.722;9.316;2023-12-20T06:59:46;7.60;;;2.63;;
2784;SDS011;57944;48.722;9.316;2023-12-20T07:02:18;2.73;;;1.30;;
2784;SDS011;57944;48.722;9.316;2023-12-20T07:04:49;4.80;;;1.57;;
2784;SDS011;57944;48.722;9.316;2023-12-20T07:07:20;2.23;;;1.23;;
2784;SDS011;57944;48.722;9.316;2023-12-20T07:09:53;2.53;;;1.53;;
2784;SDS011;57944;48.722;9.316;2023-12-20T07:12:24;3.90;;;1.20;;
2784;SDS011;57944;48.722;9.316;2023-12-20T07:14:54;3.23;;;1.50;;
2784;SDS011;57944;48.722;9.316;2023-12-20T07:17:25;6.00;;;1.80;;
2784;SDS011;57944;48.722;9.316;2023-12-20T07:19:56;4.20;;;1.50;;
2784;SDS011;57944;48.722;9.316;2023-12-20T07:22:30;2.27;;;1.20;;
2784;SDS011;57944;48.722;9.316;2023-12-20T07:25:04;2.93;;;1.87;;
2784;SDS011;57944;48.722;9.316;2023-12-20T07:27:35;5.33;;;1.97;;
2784;SDS011;57944;48.722;9.316;2023-12-20T07:30:10;6.33;;;3.17;;
2784;SDS011;57944;48.722;9.316;2023-12-20T07:32:41;11.13;;;3.90;;
2784;SDS011;57944;48.722;9.316;2023-12-20T07:35:12;13.47;;;5.27;;
2784;SDS011;57944;48.722;9.316;2023-12-20T07:37:43;15.27;;;6.63;;
2784;SDS011;57944;48.722;9.316;2023-12-20T07:40:16;15.70;;;5.10;;
2784;SDS011;57944;48.722;9.316;2023-12-20T07:42:47;5.70;;;2.10;;
2784;SDS011;57944;48.722;9.316;2023-12-20T07:45:17;3.13;;;1.93;;
2784;SDS011;57944;48.722;9.316;2023-12-20T07:47:48;4.70;;;1.60;;
2784;SDS011;57944;48.722;9.316;2023-12-20T07:50:20;3.53;;;2.20;;
2784;SDS011;57944;48.722;9.316;2023-12-20T07:52:51;3.00;;;1.97;;
2784;SDS011;57944;48.722;9.316;2023-12-20T07:55:24;3.83;;;2.20;;
2784;SDS011;57944;48.722;9.316;2023-12-20T07:57:54;6.23;;;2.93;;
2784;SDS011;57944;48.722;9.316;2023-12-20T08:00:25;3.30;;;2.33;;
2784;SDS011;57944;48.722;9.316;2023-12-20T08:02:56;4.77;;;3.53;;
2784;SDS011;57944;48.722;9.316;2023-12-20T08:05:30;11.50;;;4.30;;
2784;SDS011;57944;48.722;9.316;2023-12-20T08:08:00;6.13;;;3.10;;
2784;SDS011;57944;48.722;9.316;2023-12-20T08:10:34;5.20;;;3.43;;
2784;SDS011;57944;48.722;9.316;2023-12-20T08:13:04;7.87;;;4.43;;
2784;SDS011;57944;48.722;9.316;2023-12-20T08:15:35;5.77;;;4.90;;
2784;SDS011;57944;48.722;9.316;2023-12-20T08:18:06;8.70;;;4.87;;
2784;SDS011;57944;48.722;9.316;2023-12-20T08:20:36;9.10;;;5.17;;
2784;SDS011;57944;48.722;9.316;2023-12-20T08:23:07;8.30;;;5.07;;
2784;SDS011;57944;48.722;9.316;2023-12-20T08:25:40;11.00;;;5.30;;
2784;SDS011;57944;48.722;9.316;2023-12-20T08:28:11;8.43;;;4.80;;
2784;SDS011;57944;48.722;9.316;2023-12-20T08:30:42;10.60;;;5.87;;
2784;SDS011;57944;48.722;9.316;2023-12-20T08:33:13;11.20;;;5.37;;
2784;SDS011;57944;48.722;9.316;2023-12-20T08:35:44;7.20;;;4.47;;
2784;SDS011;57944;48.722;9.316;2023-12-20T08:38:15;8.50;;;5.60;;
2784;SDS011;57944;48.722;9.316;2023-12-20T08:40:48;6.60;;;4.47;;
2784;SDS011;57944;48.722;9.316;2023-12-20T08:43:19;9.30;;;4.80;;
2784;SDS011;57944;48.722;9.316;2023-12-20T08:45:50;8.50;;;4.90;;
2784;SDS011;57944;48.722;9.316;2023-12-20T08:48:20;6.23;;;3.93;;
2784;SDS011;57944;48.722;9.316;2023-12-20T08:50:51;6.47;;;5.17;;
2784;SDS011;57944;48.722;9.316;2023-12-20T08:53:22;7.33;;;4.00;;
2784;SDS011;57944;48.722;9.316;2023-12-20T08:55:55;5.53;;;4.10;;
2784;SDS011;57944;48.722;9.316;2023-12-20T08:58:27;7.97;;;4.90;;
2784;SDS011;57944;48.722;9.316;2023-12-20T09:00:58;7.53;;;4.43;;
2784;SDS011;57944;48.722;9.316;2023-12-20T09:03:29;4.40;;;3.43;;
2784;SDS011;57944;48.722;9.316;2023-12-20T09:06:00;6.00;;;3.53;;
2784;SDS011;57944;48.722;9.316;2023-12-20T09:08:30;4.23;;;3.40;;
2784;SDS011;57944;48.722;9.316;2023-12-20T09:11:03;7.33;;;4.30;;
2784;SDS011;57944;48.722;9.316;2023-12-20T09:13:35;5.03;;;3.70;;
2784;SDS011;57944;48.722;9.316;2023-12-20T09:16:05;6.27;;;3.73;;
2784;SDS011;57944;48.722;9.316;2023-12-20T09:18:36;9.80;;;4.30;;
2784;SDS011;57944;48.722;9.316;2023-12-20T09:21:07;5.67;;;3.93;;
2784;SDS011;57944;48.722;9.316;2023-12-20T09:23:37;5.60;;;3.80;;
2784;SDS011;57944;48.722;9.316;2023-12-20T09:26:10;4.07;;;3.10;;
2784;SDS011;57944;48.722;9.316;2023-12-20T09:28:41;5.43;;;3.40;;
2784;SDS011;57944;48.722;9.316;2023-12-20T09:31:11;10.90;;;3.90;;
2784;SDS011;57944;48.722;9.316;2023-12-20T09:33:42;7.03;;;3.30;;
2784;SDS011;57944;48.722;9.316;2023-12-20T09:36:13;7.33;;;3.83;;
2784;SDS011;57944;48.722;9.316;2023-12-20T09:38:44;5.10;;;4.03;;
2784;SDS011;57944;48.722;9.316;2023-12-20T09:41:18;7.10;;;3.60;;
2784;SDS011;57944;48.722;9.316;2023-12-20T09:43:49;5.53;;;3.73;;
2784;SDS011;57944;48.722;9.316;2023-12-20T09:46:24;7.60;;;2.97;;
2784;SDS011;57944;48.722;9.316;2023-12-20T09:48:58;5.77;;;3.00;;
2784;SDS011;57944;48.722;9.316;2023-12-20T09:51:29;5.27;;;2.83;;
2784;SDS011;57944;48.722;9.316;2023-12-20T09:54:00;6.53;;;3.50;;
2784;SDS011;57944;48.722;9.316;2023-12-20T09:56:36;10.13;;;3.10;;
2784;SDS011;57944;48.722;9.316;2023-12-20T09:59:07;7.00;;;3.07;;
2784;SDS011;57944;48.722;9.316;2023-12-20T10:01:38;9.47;;;3.20;;
2784;SDS011;57944;48.722;9.316;2023-12-20T10:04:12;4.80;;;2.53;;
2784;SDS011;57944;48.722;9.316;2023-12-20T10:06:55;5.13;;;2.40;;
2784;SDS011;57944;48.722;9.316;2023-12-20T10:09:28;9.77;;;3.23;;
2784;SDS011;57944;48.722;9.316;2023-12-20T10:12:04;4.13;;;2.10;;
2784;SDS011;57944;48.722;9.316;2023-12-20T10:14:35;6.00;;;2.10;;
2784;SDS011;57944;48.722;9.316;2023-12-20T10:17:07;3.57;;;1.97;;
2784;SDS011;57944;48.722;9.316;2023-12-20T10:19:38;2.87;;;1.77;;
2784;SDS011;57944;48.722;9.316;2023-12-20T10:22:09;3.97;;;2.23;;
2784;SDS011;57944;48.722;9.316;2023-12-20T10:24:40;3.30;;;1.80;;
2784;SDS011;57944;48.722;9.316;2023-12-20T10:27:14;8.37;;;1.73;;
2784;SDS011;57944;48.722;9.316;2023-12-20T10:29:47;4.00;;;2.40;;
2784;SDS011;57944;48.722;9.316;2023-12-20T10:32:21;3.60;;;1.80;;
2784;SDS011;57944;48.722;9.316;2023-12-20T10:34:53;5.00;;;1.90;;
2784;SDS011;57944;48.722;9.316;2023-12-20T10:37:26;5.10;;;2.10;;
2784;SDS011;57944;48.722;9.316;2023-12-20T10:39:57;3.20;;;2.43;;
2784;SDS011;57944;48.722;9.316;2023-12-20T10:42:35;3.40;;;1.50;;
2784;SDS011;57944;48.722;9.316;2023-12-20T10:45:07;3.43;;;1.90;;
2784;SDS011;57944;48.722;9.316;2023-12-20T10:47:39;5.30;;;2.23;;
2784;SDS011;57944;48.722;9.316;2023-12-20T10:50:11;12.23;;;2.07;;
2784;SDS011;57944;48.722;9.316;2023-12-20T10:52:42;8.57;;;2.67;;
2784;SDS011;57944;48.722;9.316;2023-12-20T10:55:13;8.73;;;2.27;;
2784;SDS011;57944;48.722;9.316;2023-12-20T10:57:47;3.90;;;2.20;;
2784;SDS011;57944;48.722;9.316;2023-12-20T11:00:19;6.10;;;2.10;;
2784;SDS011;57944;48.722;9.316;2023-12-20T11:02:52;3.10;;;1.60;;
2784;SDS011;57944;48.722;9.316;2023-12-20T11:05:26;5.57;;;2.10;;
2784;SDS011;57944;48.722;9.316;2023-12-20T11:08:09;5.50;;;2.10;;
2784;SDS011;57944;48.722;9.316;2023-12-20T11:10:43;6.20;;;1.90;;
2784;SDS011;57944;48.722;9.316;2023-12-20T11:13:26;6.00;;;1.60;;
2784;SDS011;57944;48.722;9.316;2023-12-20T11:16:02;3.63;;;1.77;;
2784;SDS011;57944;48.722;9.316;2023-12-20T11:18:34;3.43;;;2.03;;
2784;SDS011;57944;48.722;9.316;2023-12-20T11:21:05;6.20;;;1.97;;
2784;SDS011;57944;48.722;9.316;2023-12-20T11:23:36;9.00;;;2.07;;
2784;SDS011;57944;48.722;9.316;2023-12-20T11:26:06;6.50;;;1.63;;
2784;SDS011;57944;48.722;9.316;2023-12-20T11:28:40;5.80;;;2.10;;
2784;SDS011;57944;48.722;9.316;2023-12-20T11:31:12;6.50;;;3.93;;
2784;SDS011;57944;48.722;9.316;2023-12-20T11:33:46;6.83;;;2.37;;
2784;SDS011;57944;48.722;9.316;2023-12-20T11:36:18;7.20;;;2.50;;
2784;SDS011;57944;48.722;9.316;2023-12-20T11:38:53;7.00;;;2.50;;
2784;SDS011;57944;48.722;9.316;2023-12-20T11:41:26;6.33;;;2.50;;
2784;SDS011;57944;48.722;9.316;2023-12-20T11:43:59;5.63;;;2.47;;
2784;SDS011;57944;48.722;9.316;2023-12-20T11:46:30;5.40;;;2.67;;
2784;SDS011;57944;48.722;9.316;2023-12-20T11:49:02;5.13;;;2.37;;
2784;SDS011;57944;48.722;9.316;2023-12-20T11:51:33;5.33;;;2.30;;
2784;SDS011;57944;48.722;9.316;2023-12-20T11:54:04;5.93;;;2.43;;
2784;SDS011;57944;48.722;9.316;2023-12-20T11:56:35;6.90;;;1.80;;
2784;SDS011;57944;48.722;9.316;2023-12-20T11:59:10;6.53;;;2.90;;
2784;SDS011;57944;48.722;9.316;2023-12-20T12:01:49;5.70;;;1.70;;
2784;SDS011;57944;48.722;9.316;2023-12-20T12:04:23;5.80;;;1.80;;
2784;SDS011;57944;48.722;9.316;2023-12-20T12:06:53;3.43;;;2.13;;
2784;SDS011;57944;48.722;9.316;2023-12-20T12:09:24;4.60;;;2.73;;
2784;SDS011;57944;48.722;9.316;2023-12-20T12:11:55;3.70;;;1.70;;
2784;SDS011;57944;48.722;9.316;2023-12-20T12:14:28;4.90;;;2.37;;
2784;SDS011;57944;48.722;9.316;2023-12-20T12:16:59;4.73;;;1.70;;
2784;SDS011;57944;48.722;9.316;2023-12-20T12:19:30;5.33;;;2.10;;
2784;SDS011;57944;48.722;9.316;2023-12-20T12:22:04;7.87;;;2.13;;
2784;SDS011;57944;48.722;9.316;2023-12-20T12:24:41;6.17;;;2.27;;
2784;SDS011;57944;48.722;9.316;2023-12-20T12:27:13;5.97;;;2.00;;
2784;SDS011;57944;48.722;9.316;2023-12-20T12:32:34;7.90;;;3.73;;
2784;SDS011;57944;48.722;9.316;2023-12-20T12:35:05;6.70;;;2.43;;
2784;SDS011;57944;48.722;9.316;2023-12-20T12:37:38;3.10;;;1.77;;
2784;SDS011;57944;48.722;9.316;2023-12-20T12:40:10;2.80;;;1.67;;
2784;SDS011;57944;48.722;9.316;2023-12-20T12:42:42;5.33;;;2.37;;
2784;SDS011;57944;48.722;9.316;2023-12-20T12:45:17;8.10;;;3.50;;
2784;SDS011;57944;48.722;9.316;2023-12-20T12:47:47;6.57;;;2.90;;
2784;SDS011;57944;48.722;9.316;2023-12-20T12:50:18;3.57;;;1.90;;
2784;SDS011;57944;48.722;9.316;2023-12-20T12:52:49;4.80;;;2.27;;
2784;SDS011;57944;48.722;9.316;2023-12-20T12:55:19;3.07;;;1.93;;
2784;SDS011;57944;48.722;9.316;2023-12-20T12:57:50;6.83;;;2.20;;
2784;SDS011;57944;48.722;9.316;2023-12-20T13:00:23;5.40;;;2.57;;
2784;SDS011;57944;48.722;9.316;2023-12-20T13:02:54;3.60;;;2.23;;
2784;SDS011;57944;48.722;9.316;2023-12-20T13:05:24;8.33;;;3.10;;
2784;SDS011;57944;48.722;9.316;2023-12-20T13:07:55;7.23;;;2.37;;
2784;SDS011;57944;48.722;9.316;2023-12-20T13:10:26;5.20;;;1.83;;
2784;SDS011;57944;48.722;9.316;2023-12-20T13:12:57;3.93;;;2.00;;
2784;SDS011;57944;48.722;9.316;2023-12-20T13:15:30;5.40;;;2.40;;
2784;SDS011;57944;48.722;9.316;2023-12-20T13:18:01;5.50;;;1.70;;
2784;SDS011;57944;48.722;9.316;2023-12-20T13:20:32;6.23;;;2.27;;
2784;SDS011;57944;48.722;9.316;2023-12-20T13:23:05;9.93;;;2.27;;
2784;SDS011;57944;48.722;9.316;2023-12-20T13:25:36;6.63;;;2.10;;
2784;SDS011;57944;48.722;9.316;2023-12-20T13:28:06;5.50;;;3.10;;
2784;SDS011;57944;48.722;9.316;2023-12-20T13:30:40;3.53;;;1.57;;
2784;SDS011;57944;48.722;9.316;2023-12-20T13:33:10;6.63;;;1.70;;
2784;SDS011;57944;48.722;9.316;2023-12-20T13:35:41;3.47;;;1.80;;
2784;SDS011;57944;48.722;9.316;2023-12-20T13:38:12;4.57;;;2.30;;
2784;SDS011;57944;48.722;9.316;2023-12-20T13:40:43;3.37;;;2.00;;
2784;SDS011;57944;48.722;9.316;2023-12-20T13:43:13;6.37;;;1.90;;
2784;SDS011;57944;48.722;9.316;2023-12-20T13:45:50;9.70;;;2.50;;
2784;SDS011;57944;48.722;9.316;2023-12-20T13:48:21;5.70;;;2.57;;
2784;SDS011;57944;48.722;9.316;2023-12-20T13:50:51;6.67;;;2.27;;
2784;SDS011;57944;48.722;9.316;2023-12-20T13:53:22;3.87;;;1.87;;
2784;SDS011;57944;48.722;9.316;2023-12-20T13:55:52;6.43;;;2.20;;
2784;SDS011;57944;48.722;9.316;2023-12-20T13:58:24;2.90;;;1.40;;
2784;SDS011;57944;48.722;9.316;2023-12-20T14:00:57;3.03;;;1.30;;
2784;SDS011;57944;48.722;9.316;2023-12-20T14:03:28;4.47;;;2.17;;
2784;SDS011;57944;48.722;9.316;2023-12-20T14:05:58;10.33;;;1.70;;
2784;SDS011;57944;48.722;9.316;2023-12-20T14:08:30;5.10;;;2.03;;
2784;SDS011;57944;48.722;9.316;2023-12-20T14:11:00;4.90;;;1.60;;
2784;SDS011;57944;48.722;9.316;2023-12-20T14:13:32;3.40;;;1.40;;
2784;SDS011;57944;48.722;9.316;2023-12-20T14:16:05;3.40;;;1.50;;
2784;SDS011;57944;48.722;9.316;2023-12-20T14:18:37;4.70;;;1.73;;
2784;SDS011;57944;48.722;9.316;2023-12-20T14:21:08;6.20;;;1.80;;
2784;SDS011;57944;48.722;9.316;2023-12-20T14:23:39;4.60;;;2.27;;
2784;SDS011;57944;48.722;9.316;2023-12-20T14:26:12;3.80;;;1.83;;
2784;SDS011;57944;48.722;9.316;2023-12-20T14:28:43;6.03;;;2.00;;
2784;SDS011;57944;48.722;9.316;2023-12-20T14:31:16;4.03;;;1.83;;
2784;SDS011;57944;48.722;9.316;2023-12-20T14:33:46;6.33;;;1.70;;
2784;SDS011;57944;48.722;9.316;2023-12-20T14:36:19;13.90;;;2.60;;
2784;SDS011;57944;48.722;9.316;2023-12-20T14:38:51;6.13;;;1.63;;
2784;SDS011;57944;48.722;9.316;2023-12-20T14:41:21;4.73;;;1.43;;
2784;SDS011;57944;48.722;9.316;2023-12-20T14:43:53;8.87;;;1.70;;
2784;SDS011;57944;48.722;9.316;2023-12-20T14:46:26;7.73;;;2.10;;
2784;SDS011;57944;48.722;9.316;2023-12-20T14:48:57;8.10;;;1.77;;
2784;SDS011;57944;48.722;9.316;2023-12-20T14:51:29;4.73;;;2.03;;
2784;SDS011;57944;48.722;9.316;2023-12-20T14:54:00;6.13;;;1.83;;
2784;SDS011;57944;48.722;9.316;2023-12-20T14:56:30;2.90;;;1.57;;
2784;SDS011;57944;48.722;9.316;2023-12-20T14:59:01;5.00;;;1.40;;
2784;SDS011;57944;48.722;9.316;2023-12-20T15:01:34;4.53;;;2.00;;
2784;SDS011;57944;48.722;9.316;2023-12-20T15:04:07;5.90;;;1.73;;
2784;SDS011;57944;48.722;9.316;2023-12-20T15:06:38;5.73;;;1.97;;
2784;SDS011;57944;48.722;9.316;2023-12-20T15:09:10;6.03;;;2.53;;
2784;SDS011;57944;48.722;9.316;2023-12-20T15:11:40;9.30;;;2.93;;
2784;SDS011;57944;48.722;9.316;2023-12-20T15:14:11;8.13;;;2.50;;
2784;SDS011;57944;48.722;9.316;2023-12-20T15:16:48;8.70;;;2.10;;
2784;SDS011;57944;48.722;9.316;2023-12-20T15:19:18;3.37;;;1.90;;
2784;SDS011;57944;48.722;9.316;2023-12-20T15:21:49;8.43;;;3.17;;
2784;SDS011;57944;48.722;9.316;2023-12-20T15:24:20;10.93;;;2.67;;
2784;SDS011;57944;48.722;9.316;2023-12-20T15:26:55;6.20;;;2.33;;
2784;SDS011;57944;48.722;9.316;2023-12-20T15:29:26;7.67;;;2.57;;